sensor_id;sensor_type;location;lat;lon;timestamp;temperature;humidity
3713;DHT22;1872;51.406;6.856;2023-05-18T00:01:58;9.20;94.20
3713;DHT22;1872;51.406;6.856;2023-05-18T00:04:24;9.20;94.30
3713;DHT22;1872;51.406;6.856;2023-05-18T00:06:51;9.20;94.40
3713;DHT22;1872;51.406;6.856;2023-05-18T00:09:22;9.10;94.40
3713;DHT22;1872;51.406;6.856;2023-05-18T00:11:49;9.10;94.50
3713;DHT22;1872;51.406;6.856;2023-05-18T00:14:15;9.10;94.60
3713;DHT22;1872;51.406;6.856;2023-05-18T00:16:40;9.00;94.60
3713;DHT22;1872;51.406;6.856;2023-05-18T00:19:06;9.10;94.70
3713;DHT22;1872;51.406;6.856;2023-05-18T00:21:32;9.00;94.80
3713;DHT22;1872;51.406;6.856;2023-05-18T00:23:58;8.90;94.90
3713;DHT22;1872;51.406;6.856;2023-05-18T00:26:23;8.90;94.90
3713;DHT22;1872;51.406;6.856;2023-05-18T00:28:49;8.90;95.00
3713;DHT22;1872;51.406;6.856;2023-05-18T00:31:14;8.90;95.10
3713;DHT22;1872;51.406;6.856;2023-05-18T00:33:40;8.80;95.10
3713;DHT22;1872;51.406;6.856;2023-05-18T00:36:06;8.90;95.20
3713;DHT22;1872;51.406;6.856;2023-05-18T00:38:32;8.80;95.20
3713;DHT22;1872;51.406;6.856;2023-05-18T00:40:57;8.80;95.30
3713;DHT22;1872;51.406;6.856;2023-05-18T00:43:23;8.70;95.30
3713;DHT22;1872;51.406;6.856;2023-05-18T00:45:48;8.70;95.40
3713;DHT22;1872;51.406;6.856;2023-05-18T00:48:14;8.70;95.50
3713;DHT22;1872;51.406;6.856;2023-05-18T00:50:40;8.70;95.60
3713;DHT22;1872;51.406;6.856;2023-05-18T00:53:06;8.70;95.70
3713;DHT22;1872;51.406;6.856;2023-05-18T00:55:32;8.60;95.80
3713;DHT22;1872;51.406;6.856;2023-05-18T00:57:59;8.60;95.80
3713;DHT22;1872;51.406;6.856;2023-05-18T01:00:27;8.60;95.90
3713;DHT22;1872;51.406;6.856;2023-05-18T01:02:52;8.60;96.00
3713;DHT22;1872;51.406;6.856;2023-05-18T01:05:18;8.60;96.10
3713;DHT22;1872;51.406;6.856;2023-05-18T01:07:47;8.60;96.10
3713;DHT22;1872;51.406;6.856;2023-05-18T01:10:14;8.60;96.20
3713;DHT22;1872;51.406;6.856;2023-05-18T01:12:53;8.60;96.40
3713;DHT22;1872;51.406;6.856;2023-05-18T01:15:35;8.60;96.50
3713;DHT22;1872;51.406;6.856;2023-05-18T01:18:21;8.60;96.60
3713;DHT22;1872;51.406;6.856;2023-05-18T01:22:01;8.60;96.70
3713;DHT22;1872;51.406;6.856;2023-05-18T01:26:40;8.50;96.80
3713;DHT22;1872;51.406;6.856;2023-05-18T01:29:12;8.50;96.80
3713;DHT22;1872;51.406;6.856;2023-05-18T01:31:38;8.40;96.90
3713;DHT22;1872;51.406;6.856;2023-05-18T01:34:05;8.40;97.00
3713;DHT22;1872;51.406;6.856;2023-05-18T01:36:31;8.40;97.10
3713;DHT22;1872;51.406;6.856;2023-05-18T01:38:57;8.40;97.20
3713;DHT22;1872;51.406;6.856;2023-05-18T01:41:30;8.40;97.30
3713;DHT22;1872;51.406;6.856;2023-05-18T01:44:32;8.40;97.40
3713;DHT22;1872;51.406;6.856;2023-05-18T01:52:37;8.30;97.70
3713;DHT22;1872;51.406;6.856;2023-05-18T01:55:05;8.30;97.70
3713;DHT22;1872;51.406;6.856;2023-05-18T01:57:32;8.30;97.70
3713;DHT22;1872;51.406;6.856;2023-05-18T01:59:59;8.20;97.80
3713;DHT22;1872;51.406;6.856;2023-05-18T02:02:26;8.20;97.90
3713;DHT22;1872;51.406;6.856;2023-05-18T02:04:52;8.20;98.00
3713;DHT22;1872;51.406;6.856;2023-05-18T02:07:17;8.20;98.00
3713;DHT22;1872;51.406;6.856;2023-05-18T02:09:43;8.20;98.10
3713;DHT22;1872;51.406;6.856;2023-05-18T02:12:09;8.20;98.20
3713;DHT22;1872;51.406;6.856;2023-05-18T02:14:35;8.20;98.30
3713;DHT22;1872;51.406;6.856;2023-05-18T02:17:01;8.20;98.40
3713;DHT22;1872;51.406;6.856;2023-05-18T02:19:27;8.10;98.50
3713;DHT22;1872;51.406;6.856;2023-05-18T02:21:55;8.10;98.60
3713;DHT22;1872;51.406;6.856;2023-05-18T02:24:21;8.10;98.70
3713;DHT22;1872;51.406;6.856;2023-05-18T02:26:47;8.00;98.70
3713;DHT22;1872;51.406;6.856;2023-05-18T02:29:13;8.00;98.80
3713;DHT22;1872;51.406;6.856;2023-05-18T02:31:39;8.00;99.00
3713;DHT22;1872;51.406;6.856;2023-05-18T02:34:05;7.90;99.00
3713;DHT22;1872;51.406;6.856;2023-05-18T02:36:31;7.90;99.10
3713;DHT22;1872;51.406;6.856;2023-05-18T02:39:08;7.90;99.20
3713;DHT22;1872;51.406;6.856;2023-05-18T02:41:35;7.90;99.30
3713;DHT22;1872;51.406;6.856;2023-05-18T02:44:02;7.80;99.40
3713;DHT22;1872;51.406;6.856;2023-05-18T02:46:28;7.80;99.50
3713;DHT22;1872;51.406;6.856;2023-05-18T02:48:53;7.80;99.60
3713;DHT22;1872;51.406;6.856;2023-05-18T02:51:19;7.70;99.60
3713;DHT22;1872;51.406;6.856;2023-05-18T02:53:46;7.70;99.70
3713;DHT22;1872;51.406;6.856;2023-05-18T02:56:12;7.70;99.90
3713;DHT22;1872;51.406;6.856;2023-05-18T02:58:38;7.60;99.90
3713;DHT22;1872;51.406;6.856;2023-05-18T03:01:04;7.60;99.90
3713;DHT22;1872;51.406;6.856;2023-05-18T03:03:32;7.60;99.90
3713;DHT22;1872;51.406;6.856;2023-05-18T03:05:59;7.60;99.90
3713;DHT22;1872;51.406;6.856;2023-05-18T03:08:27;7.50;99.90
3713;DHT22;1872;51.406;6.856;2023-05-18T03:10:53;7.50;99.90
3713;DHT22;1872;51.406;6.856;2023-05-18T03:13:19;7.50;99.90
3713;DHT22;1872;51.406;6.856;2023-05-18T03:15:45;7.50;99.90
3713;DHT22;1872;51.406;6.856;2023-05-18T03:18:11;7.50;99.90
3713;DHT22;1872;51.406;6.856;2023-05-18T03:20:37;7.50;99.90
3713;DHT22;1872;51.406;6.856;2023-05-18T03:23:03;7.50;99.90
3713;DHT22;1872;51.406;6.856;2023-05-18T03:25:29;7.40;99.90
3713;DHT22;1872;51.406;6.856;2023-05-18T03:27:57;7.40;99.90
3713;DHT22;1872;51.406;6.856;2023-05-18T03:30:23;7.40;99.90
3713;DHT22;1872;51.406;6.856;2023-05-18T03:32:48;7.40;99.90
3713;DHT22;1872;51.406;6.856;2023-05-18T03:35:15;7.40;99.90
3713;DHT22;1872;51.406;6.856;2023-05-18T03:37:41;7.40;99.90
3713;DHT22;1872;51.406;6.856;2023-05-18T03:40:44;7.40;99.90
3713;DHT22;1872;51.406;6.856;2023-05-18T03:43:09;7.30;99.90
3713;DHT22;1872;51.406;6.856;2023-05-18T03:45:35;7.30;99.90
3713;DHT22;1872;51.406;6.856;2023-05-18T03:48:01;7.30;99.90
3713;DHT22;1872;51.406;6.856;2023-05-18T03:50:26;7.30;99.90
3713;DHT22;1872;51.406;6.856;2023-05-18T03:52:53;7.30;99.90
3713;DHT22;1872;51.406;6.856;2023-05-18T03:55:20;7.30;99.90
3713;DHT22;1872;51.406;6.856;2023-05-18T03:57:49;7.30;99.90
3713;DHT22;1872;51.406;6.856;2023-05-18T04:00:14;7.30;99.90
3713;DHT22;1872;51.406;6.856;2023-05-18T04:02:40;7.30;99.90
3713;DHT22;1872;51.406;6.856;2023-05-18T04:05:07;7.30;99.90
3713;DHT22;1872;51.406;6.856;2023-05-18T04:07:32;7.30;99.90
3713;DHT22;1872;51.406;6.856;2023-05-18T04:09:58;7.30;99.90
3713;DHT22;1872;51.406;6.856;2023-05-18T04:12:24;7.30;99.90
3713;DHT22;1872;51.406;6.856;2023-05-18T04:14:49;7.40;99.90
3713;DHT22;1872;51.406;6.856;2023-05-18T04:17:16;7.40;99.90
3713;DHT22;1872;51.406;6.856;2023-05-18T04:19:42;7.40;99.90
3713;DHT22;1872;51.406;6.856;2023-05-18T04:22:08;7.50;99.90
3713;DHT22;1872;51.406;6.856;2023-05-18T04:24:34;7.50;99.90
3713;DHT22;1872;51.406;6.856;2023-05-18T04:27:01;7.50;99.90
3713;DHT22;1872;51.406;6.856;2023-05-18T04:29:27;7.50;99.90
3713;DHT22;1872;51.406;6.856;2023-05-18T04:31:56;7.50;99.90
3713;DHT22;1872;51.406;6.856;2023-05-18T04:34:29;7.50;99.90
3713;DHT22;1872;51.406;6.856;2023-05-18T04:36:56;7.50;99.90
3713;DHT22;1872;51.406;6.856;2023-05-18T04:39:24;7.60;99.90
3713;DHT22;1872;51.406;6.856;2023-05-18T04:41:51;7.60;99.90
3713;DHT22;1872;51.406;6.856;2023-05-18T04:44:29;7.70;99.90
3713;DHT22;1872;51.406;6.856;2023-05-18T04:46:55;7.70;99.90
3713;DHT22;1872;51.406;6.856;2023-05-18T04:49:21;7.70;99.90
3713;DHT22;1872;51.406;6.856;2023-05-18T04:51:52;7.60;99.90
3713;DHT22;1872;51.406;6.856;2023-05-18T04:54:21;7.70;99.90
3713;DHT22;1872;51.406;6.856;2023-05-18T04:56:48;7.80;99.90
3713;DHT22;1872;51.406;6.856;2023-05-18T04:59:13;7.80;99.90
3713;DHT22;1872;51.406;6.856;2023-05-18T05:01:39;7.90;99.90
3713;DHT22;1872;51.406;6.856;2023-05-18T05:04:04;7.90;99.90
3713;DHT22;1872;51.406;6.856;2023-05-18T05:06:30;8.00;99.90
3713;DHT22;1872;51.406;6.856;2023-05-18T05:08:56;8.00;99.90
3713;DHT22;1872;51.406;6.856;2023-05-18T05:11:22;8.00;99.90
3713;DHT22;1872;51.406;6.856;2023-05-18T05:13:47;8.00;99.90
3713;DHT22;1872;51.406;6.856;2023-05-18T05:16:13;8.10;99.90
3713;DHT22;1872;51.406;6.856;2023-05-18T05:18:38;8.10;99.90
3713;DHT22;1872;51.406;6.856;2023-05-18T05:21:04;8.10;99.90
3713;DHT22;1872;51.406;6.856;2023-05-18T05:23:30;8.20;99.90
3713;DHT22;1872;51.406;6.856;2023-05-18T05:25:56;8.30;99.90
3713;DHT22;1872;51.406;6.856;2023-05-18T05:28:22;8.30;99.90
3713;DHT22;1872;51.406;6.856;2023-05-18T05:30:47;8.40;99.90
3713;DHT22;1872;51.406;6.856;2023-05-18T05:33:13;8.40;99.90
3713;DHT22;1872;51.406;6.856;2023-05-18T05:35:39;8.50;99.90
3713;DHT22;1872;51.406;6.856;2023-05-18T05:38:04;8.60;99.90
3713;DHT22;1872;51.406;6.856;2023-05-18T05:40:31;8.60;99.90
3713;DHT22;1872;51.406;6.856;2023-05-18T05:42:56;8.70;99.90
3713;DHT22;1872;51.406;6.856;2023-05-18T05:45:22;8.70;99.90
3713;DHT22;1872;51.406;6.856;2023-05-18T05:47:48;8.70;99.90
3713;DHT22;1872;51.406;6.856;2023-05-18T05:50:14;8.80;99.90
3713;DHT22;1872;51.406;6.856;2023-05-18T05:52:40;9.10;99.90
3713;DHT22;1872;51.406;6.856;2023-05-18T05:55:06;9.70;99.90
3713;DHT22;1872;51.406;6.856;2023-05-18T05:57:31;10.30;99.90
3713;DHT22;1872;51.406;6.856;2023-05-18T05:59:57;10.40;99.90
3713;DHT22;1872;51.406;6.856;2023-05-18T06:02:23;10.70;99.90
3713;DHT22;1872;51.406;6.856;2023-05-18T06:04:48;11.30;99.90
3713;DHT22;1872;51.406;6.856;2023-05-18T06:07:14;11.90;99.90
3713;DHT22;1872;51.406;6.856;2023-05-18T06:09:39;12.50;99.90
3713;DHT22;1872;51.406;6.856;2023-05-18T06:12:05;13.40;99.90
3713;DHT22;1872;51.406;6.856;2023-05-18T06:14:31;14.10;99.90
3713;DHT22;1872;51.406;6.856;2023-05-18T06:16:57;14.50;99.90
3713;DHT22;1872;51.406;6.856;2023-05-18T06:19:22;14.90;99.90
3713;DHT22;1872;51.406;6.856;2023-05-18T06:21:48;15.20;99.90
3713;DHT22;1872;51.406;6.856;2023-05-18T06:24:14;15.30;99.90
3713;DHT22;1872;51.406;6.856;2023-05-18T06:26:40;15.30;99.90
3713;DHT22;1872;51.406;6.856;2023-05-18T06:29:05;15.50;99.90
3713;DHT22;1872;51.406;6.856;2023-05-18T06:31:33;15.80;99.90
3713;DHT22;1872;51.406;6.856;2023-05-18T06:33:59;16.00;99.90
3713;DHT22;1872;51.406;6.856;2023-05-18T06:36:25;16.30;99.90
3713;DHT22;1872;51.406;6.856;2023-05-18T06:38:50;16.50;99.90
3713;DHT22;1872;51.406;6.856;2023-05-18T06:41:16;16.60;99.90
3713;DHT22;1872;51.406;6.856;2023-05-18T06:43:42;16.30;98.50
3713;DHT22;1872;51.406;6.856;2023-05-18T06:46:07;15.90;97.80
3713;DHT22;1872;51.406;6.856;2023-05-18T06:48:33;15.80;98.00
3713;DHT22;1872;51.406;6.856;2023-05-18T06:50:59;16.10;98.40
3713;DHT22;1872;51.406;6.856;2023-05-18T06:53:24;16.20;98.40
3713;DHT22;1872;51.406;6.856;2023-05-18T06:55:50;16.20;98.60
3713;DHT22;1872;51.406;6.856;2023-05-18T06:58:16;16.50;98.60
3713;DHT22;1872;51.406;6.856;2023-05-18T07:00:42;16.70;98.00
3713;DHT22;1872;51.406;6.856;2023-05-18T07:03:07;16.80;97.30
3713;DHT22;1872;51.406;6.856;2023-05-18T07:05:33;16.80;97.50
3713;DHT22;1872;51.406;6.856;2023-05-18T07:07:59;16.90;97.30
3713;DHT22;1872;51.406;6.856;2023-05-18T07:10:24;16.80;96.70
3713;DHT22;1872;51.406;6.856;2023-05-18T07:12:50;16.90;96.70
3713;DHT22;1872;51.406;6.856;2023-05-18T07:15:16;17.00;97.10
3713;DHT22;1872;51.406;6.856;2023-05-18T07:17:41;16.90;96.20
3713;DHT22;1872;51.406;6.856;2023-05-18T07:20:07;16.80;96.20
3713;DHT22;1872;51.406;6.856;2023-05-18T07:22:33;16.60;95.60
3713;DHT22;1872;51.406;6.856;2023-05-18T07:24:59;16.60;95.60
3713;DHT22;1872;51.406;6.856;2023-05-18T07:27:26;16.70;96.10
3713;DHT22;1872;51.406;6.856;2023-05-18T07:29:52;17.00;95.40
3713;DHT22;1872;51.406;6.856;2023-05-18T07:32:18;17.00;95.30
3713;DHT22;1872;51.406;6.856;2023-05-18T07:34:43;17.20;95.20
3713;DHT22;1872;51.406;6.856;2023-05-18T07:37:11;17.40;95.20
3713;DHT22;1872;51.406;6.856;2023-05-18T07:39:37;17.50;94.90
3713;DHT22;1872;51.406;6.856;2023-05-18T07:42:03;17.50;94.50
3713;DHT22;1872;51.406;6.856;2023-05-18T07:44:29;17.50;94.80
3713;DHT22;1872;51.406;6.856;2023-05-18T07:46:55;17.90;94.40
3713;DHT22;1872;51.406;6.856;2023-05-18T07:49:21;18.10;94.10
3713;DHT22;1872;51.406;6.856;2023-05-18T07:51:50;18.10;93.80
3713;DHT22;1872;51.406;6.856;2023-05-18T07:54:16;18.30;93.40
3713;DHT22;1872;51.406;6.856;2023-05-18T07:56:41;18.60;93.10
3713;DHT22;1872;51.406;6.856;2023-05-18T07:59:09;18.50;92.80
3713;DHT22;1872;51.406;6.856;2023-05-18T08:01:35;18.50;92.10
3713;DHT22;1872;51.406;6.856;2023-05-18T08:04:02;18.60;92.30
3713;DHT22;1872;51.406;6.856;2023-05-18T08:06:28;18.90;91.80
3713;DHT22;1872;51.406;6.856;2023-05-18T08:08:53;19.10;91.40
3713;DHT22;1872;51.406;6.856;2023-05-18T08:11:21;18.80;90.60
3713;DHT22;1872;51.406;6.856;2023-05-18T08:13:47;18.70;90.50
3713;DHT22;1872;51.406;6.856;2023-05-18T08:16:13;18.80;90.40
3713;DHT22;1872;51.406;6.856;2023-05-18T08:18:39;18.60;90.10
3713;DHT22;1872;51.406;6.856;2023-05-18T08:21:05;18.60;90.00
3713;DHT22;1872;51.406;6.856;2023-05-18T08:23:34;18.90;89.70
3713;DHT22;1872;51.406;6.856;2023-05-18T08:26:00;19.20;88.80
3713;DHT22;1872;51.406;6.856;2023-05-18T08:28:28;19.40;87.60
3713;DHT22;1872;51.406;6.856;2023-05-18T08:30:53;19.50;86.70
3713;DHT22;1872;51.406;6.856;2023-05-18T08:33:19;19.50;86.40
3713;DHT22;1872;51.406;6.856;2023-05-18T08:35:45;19.40;84.50
3713;DHT22;1872;51.406;6.856;2023-05-18T08:38:11;19.20;84.60
3713;DHT22;1872;51.406;6.856;2023-05-18T08:40:44;19.10;84.20
3713;DHT22;1872;51.406;6.856;2023-05-18T08:43:19;19.00;83.30
3713;DHT22;1872;51.406;6.856;2023-05-18T08:45:54;19.10;83.60
3713;DHT22;1872;51.406;6.856;2023-05-18T08:48:23;19.10;83.40
3713;DHT22;1872;51.406;6.856;2023-05-18T08:50:50;19.30;83.00
3713;DHT22;1872;51.406;6.856;2023-05-18T08:53:19;19.40;81.90
3713;DHT22;1872;51.406;6.856;2023-05-18T08:55:52;19.60;81.50
3713;DHT22;1872;51.406;6.856;2023-05-18T08:58:20;19.70;80.80
3713;DHT22;1872;51.406;6.856;2023-05-18T09:00:48;19.50;79.70
3713;DHT22;1872;51.406;6.856;2023-05-18T09:03:18;19.60;80.50
3713;DHT22;1872;51.406;6.856;2023-05-18T09:05:45;19.70;79.70
3713;DHT22;1872;51.406;6.856;2023-05-18T09:08:11;19.70;78.40
3713;DHT22;1872;51.406;6.856;2023-05-18T09:10:38;19.70;76.90
3713;DHT22;1872;51.406;6.856;2023-05-18T09:13:05;19.50;75.30
3713;DHT22;1872;51.406;6.856;2023-05-18T09:15:32;19.20;74.20
3713;DHT22;1872;51.406;6.856;2023-05-18T09:17:59;18.90;73.90
3713;DHT22;1872;51.406;6.856;2023-05-18T09:20:25;18.50;73.90
3713;DHT22;1872;51.406;6.856;2023-05-18T09:22:52;18.30;74.50
3713;DHT22;1872;51.406;6.856;2023-05-18T09:25:20;18.10;74.60
3713;DHT22;1872;51.406;6.856;2023-05-18T09:27:47;17.90;74.90
3713;DHT22;1872;51.406;6.856;2023-05-18T09:30:13;17.80;75.10
3713;DHT22;1872;51.406;6.856;2023-05-18T09:32:39;17.70;74.80
3713;DHT22;1872;51.406;6.856;2023-05-18T09:35:06;17.40;74.90
3713;DHT22;1872;51.406;6.856;2023-05-18T09:37:32;17.40;75.50
3713;DHT22;1872;51.406;6.856;2023-05-18T09:39:59;17.30;75.30
3713;DHT22;1872;51.406;6.856;2023-05-18T09:42:39;17.20;75.30
3713;DHT22;1872;51.406;6.856;2023-05-18T09:45:22;17.00;75.20
3713;DHT22;1872;51.406;6.856;2023-05-18T09:47:52;16.70;75.30
3713;DHT22;1872;51.406;6.856;2023-05-18T09:50:21;16.70;76.20
3713;DHT22;1872;51.406;6.856;2023-05-18T09:52:48;16.70;76.30
3713;DHT22;1872;51.406;6.856;2023-05-18T09:55:18;16.50;75.90
3713;DHT22;1872;51.406;6.856;2023-05-18T09:57:50;16.30;75.90
3713;DHT22;1872;51.406;6.856;2023-05-18T10:00:18;16.30;76.20
3713;DHT22;1872;51.406;6.856;2023-05-18T10:02:45;16.30;76.40
3713;DHT22;1872;51.406;6.856;2023-05-18T10:05:24;16.40;76.40
3713;DHT22;1872;51.406;6.856;2023-05-18T10:07:52;16.50;77.20
3713;DHT22;1872;51.406;6.856;2023-05-18T10:10:19;16.40;77.10
3713;DHT22;1872;51.406;6.856;2023-05-18T10:12:46;16.40;77.00
3713;DHT22;1872;51.406;6.856;2023-05-18T10:15:17;16.30;77.00
3713;DHT22;1872;51.406;6.856;2023-05-18T10:17:44;16.20;76.80
3713;DHT22;1872;51.406;6.856;2023-05-18T10:20:14;16.30;77.30
3713;DHT22;1872;51.406;6.856;2023-05-18T10:22:45;16.40;77.60
3713;DHT22;1872;51.406;6.856;2023-05-18T10:25:11;16.30;77.70
3713;DHT22;1872;51.406;6.856;2023-05-18T10:27:39;16.30;77.90
3713;DHT22;1872;51.406;6.856;2023-05-18T10:30:07;16.30;78.00
3713;DHT22;1872;51.406;6.856;2023-05-18T10:32:35;16.20;77.50
3713;DHT22;1872;51.406;6.856;2023-05-18T10:35:02;16.00;77.40
3713;DHT22;1872;51.406;6.856;2023-05-18T10:37:30;15.70;77.40
3713;DHT22;1872;51.406;6.856;2023-05-18T10:39:59;15.60;77.80
3713;DHT22;1872;51.406;6.856;2023-05-18T10:42:31;15.60;78.30
3713;DHT22;1872;51.406;6.856;2023-05-18T10:44:57;15.50;78.10
3713;DHT22;1872;51.406;6.856;2023-05-18T10:47:26;15.30;78.20
3713;DHT22;1872;51.406;6.856;2023-05-18T10:49:53;15.30;79.00
3713;DHT22;1872;51.406;6.856;2023-05-18T10:52:19;15.40;79.40
3713;DHT22;1872;51.406;6.856;2023-05-18T10:54:46;15.50;79.40
3713;DHT22;1872;51.406;6.856;2023-05-18T10:57:14;15.50;79.30
3713;DHT22;1872;51.406;6.856;2023-05-18T10:59:43;15.50;79.30
3713;DHT22;1872;51.406;6.856;2023-05-18T11:02:14;15.50;79.50
3713;DHT22;1872;51.406;6.856;2023-05-18T11:04:40;15.40;80.20
3713;DHT22;1872;51.406;6.856;2023-05-18T11:07:10;15.30;79.20
3713;DHT22;1872;51.406;6.856;2023-05-18T11:09:40;15.30;79.60
3713;DHT22;1872;51.406;6.856;2023-05-18T11:12:11;15.40;79.80
3713;DHT22;1872;51.406;6.856;2023-05-18T11:14:49;15.50;79.80
3713;DHT22;1872;51.406;6.856;2023-05-18T11:17:23;15.50;79.80
3713;DHT22;1872;51.406;6.856;2023-05-18T11:27:53;15.40;80.60
3713;DHT22;1872;51.406;6.856;2023-05-18T11:30:43;15.40;79.80
3713;DHT22;1872;51.406;6.856;2023-05-18T11:33:29;15.40;80.10
3713;DHT22;1872;51.406;6.856;2023-05-18T11:36:10;15.50;80.60
3713;DHT22;1872;51.406;6.856;2023-05-18T11:44:20;15.50;79.60
3713;DHT22;1872;51.406;6.856;2023-05-18T11:49:18;15.30;79.80
3713;DHT22;1872;51.406;6.856;2023-05-18T11:52:22;15.30;80.10
3713;DHT22;1872;51.406;6.856;2023-05-18T11:57:39;15.40;80.30
3713;DHT22;1872;51.406;6.856;2023-05-18T12:00:06;15.50;80.50
3713;DHT22;1872;51.406;6.856;2023-05-18T12:02:33;15.60;80.60
3713;DHT22;1872;51.406;6.856;2023-05-18T12:04:59;15.60;80.80
3713;DHT22;1872;51.406;6.856;2023-05-18T12:07:28;15.60;80.60
3713;DHT22;1872;51.406;6.856;2023-05-18T12:10:02;15.60;80.20
3713;DHT22;1872;51.406;6.856;2023-05-18T12:12:28;15.60;79.90
3713;DHT22;1872;51.406;6.856;2023-05-18T12:14:59;15.70;80.20
3713;DHT22;1872;51.406;6.856;2023-05-18T12:17:48;15.70;80.50
3713;DHT22;1872;51.406;6.856;2023-05-18T12:20:15;15.70;80.70
3713;DHT22;1872;51.406;6.856;2023-05-18T12:22:46;15.70;80.60
3713;DHT22;1872;51.406;6.856;2023-05-18T12:25:22;15.70;80.80
3713;DHT22;1872;51.406;6.856;2023-05-18T12:27:50;15.60;80.50
3713;DHT22;1872;51.406;6.856;2023-05-18T12:30:26;15.50;80.20
3713;DHT22;1872;51.406;6.856;2023-05-18T12:32:59;15.50;80.30
3713;DHT22;1872;51.406;6.856;2023-05-18T12:35:27;15.40;80.00
3713;DHT22;1872;51.406;6.856;2023-05-18T12:37:54;15.50;80.20
3713;DHT22;1872;51.406;6.856;2023-05-18T12:40:22;15.50;80.00
3713;DHT22;1872;51.406;6.856;2023-05-18T12:42:55;15.40;80.00
3713;DHT22;1872;51.406;6.856;2023-05-18T12:45:25;15.40;79.40
3713;DHT22;1872;51.406;6.856;2023-05-18T12:47:51;15.30;79.40
3713;DHT22;1872;51.406;6.856;2023-05-18T12:50:21;15.40;79.70
3713;DHT22;1872;51.406;6.856;2023-05-18T12:52:47;15.40;80.00
3713;DHT22;1872;51.406;6.856;2023-05-18T12:55:20;15.50;80.20
3713;DHT22;1872;51.406;6.856;2023-05-18T13:00:23;15.40;79.50
3713;DHT22;1872;51.406;6.856;2023-05-18T13:02:49;15.40;79.40
3713;DHT22;1872;51.406;6.856;2023-05-18T13:05:14;15.40;79.40
3713;DHT22;1872;51.406;6.856;2023-05-18T13:07:41;15.50;79.60
3713;DHT22;1872;51.406;6.856;2023-05-18T13:10:12;15.50;79.60
3713;DHT22;1872;51.406;6.856;2023-05-18T13:12:43;15.40;79.10
3713;DHT22;1872;51.406;6.856;2023-05-18T13:15:11;15.40;79.30
3713;DHT22;1872;51.406;6.856;2023-05-18T13:17:37;15.40;79.70
3713;DHT22;1872;51.406;6.856;2023-05-18T13:20:10;15.50;79.70
3713;DHT22;1872;51.406;6.856;2023-05-18T13:22:36;15.50;79.90
3713;DHT22;1872;51.406;6.856;2023-05-18T13:25:02;15.60;80.10
3713;DHT22;1872;51.406;6.856;2023-05-18T13:27:28;15.60;80.10
3713;DHT22;1872;51.406;6.856;2023-05-18T13:29:54;15.60;80.20
3713;DHT22;1872;51.406;6.856;2023-05-18T13:32:22;15.60;80.10
3713;DHT22;1872;51.406;6.856;2023-05-18T13:34:48;15.70;80.00
3713;DHT22;1872;51.406;6.856;2023-05-18T13:37:14;15.70;80.10
3713;DHT22;1872;51.406;6.856;2023-05-18T13:39:40;15.70;80.10
3713;DHT22;1872;51.406;6.856;2023-05-18T13:42:05;15.60;79.80
3713;DHT22;1872;51.406;6.856;2023-05-18T13:44:32;15.60;79.60
3713;DHT22;1872;51.406;6.856;2023-05-18T13:46:58;15.60;79.80
3713;DHT22;1872;51.406;6.856;2023-05-18T13:49:24;15.70;80.10
3713;DHT22;1872;51.406;6.856;2023-05-18T13:51:50;15.80;79.90
3713;DHT22;1872;51.406;6.856;2023-05-18T13:54:15;15.80;79.60
3713;DHT22;1872;51.406;6.856;2023-05-18T13:56:41;15.80;79.60
3713;DHT22;1872;51.406;6.856;2023-05-18T13:59:13;15.80;79.70
3713;DHT22;1872;51.406;6.856;2023-05-18T14:01:40;15.80;79.70
3713;DHT22;1872;51.406;6.856;2023-05-18T14:04:06;15.80;79.40
3713;DHT22;1872;51.406;6.856;2023-05-18T14:06:32;15.70;79.50
3713;DHT22;1872;51.406;6.856;2023-05-18T14:08:57;15.70;79.40
3713;DHT22;1872;51.406;6.856;2023-05-18T14:11:23;15.70;79.50
3713;DHT22;1872;51.406;6.856;2023-05-18T14:13:49;15.70;79.80
3713;DHT22;1872;51.406;6.856;2023-05-18T14:16:14;15.70;79.80
3713;DHT22;1872;51.406;6.856;2023-05-18T14:18:40;15.70;79.80
3713;DHT22;1872;51.406;6.856;2023-05-18T14:21:06;15.70;79.90
3713;DHT22;1872;51.406;6.856;2023-05-18T14:23:31;15.70;80.10
3713;DHT22;1872;51.406;6.856;2023-05-18T14:25:57;15.80;80.10
3713;DHT22;1872;51.406;6.856;2023-05-18T14:28:22;15.80;80.20
3713;DHT22;1872;51.406;6.856;2023-05-18T14:30:48;15.90;80.50
3713;DHT22;1872;51.406;6.856;2023-05-18T14:33:13;15.90;80.50
3713;DHT22;1872;51.406;6.856;2023-05-18T14:35:39;15.90;80.20
3713;DHT22;1872;51.406;6.856;2023-05-18T14:38:07;15.90;80.10
3713;DHT22;1872;51.406;6.856;2023-05-18T14:40:32;16.00;80.30
3713;DHT22;1872;51.406;6.856;2023-05-18T14:42:58;16.00;80.10
3713;DHT22;1872;51.406;6.856;2023-05-18T14:45:24;16.00;80.20
3713;DHT22;1872;51.406;6.856;2023-05-18T14:47:49;16.00;80.30
3713;DHT22;1872;51.406;6.856;2023-05-18T14:50:15;16.00;80.50
3713;DHT22;1872;51.406;6.856;2023-05-18T14:52:41;16.00;80.40
3713;DHT22;1872;51.406;6.856;2023-05-18T14:55:07;16.00;80.50
3713;DHT22;1872;51.406;6.856;2023-05-18T14:57:34;16.00;80.70
3713;DHT22;1872;51.406;6.856;2023-05-18T14:59:59;16.10;80.90
3713;DHT22;1872;51.406;6.856;2023-05-18T15:02:26;16.10;80.80
3713;DHT22;1872;51.406;6.856;2023-05-18T15:04:52;16.00;80.60
3713;DHT22;1872;51.406;6.856;2023-05-18T15:07:17;16.00;80.50
3713;DHT22;1872;51.406;6.856;2023-05-18T15:09:43;16.00;80.70
3713;DHT22;1872;51.406;6.856;2023-05-18T15:12:09;16.00;80.70
3713;DHT22;1872;51.406;6.856;2023-05-18T15:14:34;16.00;80.60
3713;DHT22;1872;51.406;6.856;2023-05-18T15:17:00;16.00;80.40
3713;DHT22;1872;51.406;6.856;2023-05-18T15:19:26;16.00;80.30
3713;DHT22;1872;51.406;6.856;2023-05-18T15:21:51;16.00;80.50
3713;DHT22;1872;51.406;6.856;2023-05-18T15:24:17;16.00;80.30
3713;DHT22;1872;51.406;6.856;2023-05-18T15:26:43;16.00;80.40
3713;DHT22;1872;51.406;6.856;2023-05-18T15:29:09;16.00;80.00
3713;DHT22;1872;51.406;6.856;2023-05-18T15:31:34;15.90;80.50
3713;DHT22;1872;51.406;6.856;2023-05-18T15:34:04;15.80;79.90
3713;DHT22;1872;51.406;6.856;2023-05-18T15:36:29;15.90;80.10
3713;DHT22;1872;51.406;6.856;2023-05-18T15:38:56;15.90;80.10
3713;DHT22;1872;51.406;6.856;2023-05-18T15:41:22;15.90;80.10
3713;DHT22;1872;51.406;6.856;2023-05-18T15:43:47;15.90;80.00
3713;DHT22;1872;51.406;6.856;2023-05-18T15:46:13;15.90;80.20
3713;DHT22;1872;51.406;6.856;2023-05-18T15:48:39;15.90;80.20
3713;DHT22;1872;51.406;6.856;2023-05-18T15:51:04;16.00;80.40
3713;DHT22;1872;51.406;6.856;2023-05-18T15:53:30;16.00;80.50
3713;DHT22;1872;51.406;6.856;2023-05-18T15:55:55;16.00;80.30
3713;DHT22;1872;51.406;6.856;2023-05-18T15:58:21;16.00;80.20
3713;DHT22;1872;51.406;6.856;2023-05-18T16:00:47;16.00;80.20
3713;DHT22;1872;51.406;6.856;2023-05-18T16:03:12;16.00;80.30
3713;DHT22;1872;51.406;6.856;2023-05-18T16:05:38;16.00;80.20
3713;DHT22;1872;51.406;6.856;2023-05-18T16:08:04;16.10;80.20
3713;DHT22;1872;51.406;6.856;2023-05-18T16:10:30;16.00;80.10
3713;DHT22;1872;51.406;6.856;2023-05-18T16:12:56;16.00;80.20
3713;DHT22;1872;51.406;6.856;2023-05-18T16:15:28;15.90;80.00
3713;DHT22;1872;51.406;6.856;2023-05-18T16:17:54;15.90;80.00
3713;DHT22;1872;51.406;6.856;2023-05-18T16:20:21;15.80;80.00
3713;DHT22;1872;51.406;6.856;2023-05-18T16:22:47;15.80;80.30
3713;DHT22;1872;51.406;6.856;2023-05-18T16:25:13;15.90;80.50
3713;DHT22;1872;51.406;6.856;2023-05-18T16:27:39;15.90;80.50
3713;DHT22;1872;51.406;6.856;2023-05-18T16:30:05;15.90;80.50
3713;DHT22;1872;51.406;6.856;2023-05-18T16:32:31;15.80;80.30
3713;DHT22;1872;51.406;6.856;2023-05-18T16:34:56;15.80;80.50
3713;DHT22;1872;51.406;6.856;2023-05-18T16:37:22;15.90;81.10
3713;DHT22;1872;51.406;6.856;2023-05-18T16:39:48;15.90;80.80